Briefing drone pour Portes-les-valence

Rechercher une autre localisation

Conditions de vol :


Nous sommes le : Jeudi 17 juin 2021
Il est 17:16 UTC (19:16 LT)

Lever de soleil : 03:27 UTC (05:27 LT)
Coucher de soleil : 19:55 UTC (21:55 LT)

Météo

L'essentiel des conditions de vol

VIGILANCE MÉTÉO FRANCE - Drôme (26)
Vigilance Jaune : Canicule
METAR de LFLU
LFLU 171700Z AUTO 18011KT CAVOK 28/18 Q1012

Date d'émission: 17/06/2021
Heure d'émission: 17:00 UTC
Vent: 180° pour 11 KT (20 km/h)
Visibilité horizontale: > 10 km
Plafond : Plafond et visibilité OK (CAVOK)
Température: 28 °C
Point de rosée: 18 °C
Humidité: 55%
Pression (QNH): 1012 hPa
Prévision 24h pour Valence (5 km)
Vent : 213° pour 8 KT (30 km/h)
Temperature Maxi: 30 °C
Temperature Min: 30 °C
Humidité : 42%
Condition : Partiellement nuageux



Warning: count(): Parameter must be an array or an object that implements Countable in /homepages/6/d509196549/htdocs/droneoxygene/briefing.php on line 743
WEBCAM POUR PORTES-LES-VALENCE

Réglementation

Voler en sécurité

CARTES AERONAUTIQUE 1/500.000
CARTES VAC (LFLU)
SUP AIP




Chargement des AIP...
NOTAM (PORTES-LES-VALENCE + Terrain à proximité / FIR )




Chargement des NOTAMS...
CONTACT PREFECTURE 26
Drôme (26) : ddt-satem@drome.gouv.fr


Avertissement : Les données mises à disposition sont indicatives. Oxygène Drone ne pourra être tenu responsable de dégâts causés aux biens et aux personnes.